Alekseevka, Kazakhstan
Current Conditions -  °F | °C
As of 4:30 PM on Sunday 21 Dec 2014 (Local Time) from UACC Reporting Station
Haze Haze  
Wind Chill: 17°   Ceiling: 200
Heat Index: 25°   Visibility: 0.68mi
Dew Point: 23°   Wind: 7mph
Humidity: 93%   Direction: 220°SW
Pressure: 30.12"   Gusts: NA
Location:  52.01°N, 70.94°E
Report Text: UACC 211030Z 22003MPS 1100 BR OVC002 M04/M05 Q1020 R22/3/0060NOSIG RMK QBB070 QFE734/0978
Loading
Personal Weather Stations






























Interactive Weather Map New forecast layout! Learn more

10-Day Weather Forecast

Advertisements
Track Severe Weather on mobile